sensor_id;sensor_type;location;lat;lon;timestamp;temperature;humidity
35563;DHT22;21665;40.108;18.302;2023-04-03T00:00:05;12.20;99.90
35563;DHT22;21665;40.108;18.302;2023-04-03T00:02:33;12.30;99.90
35563;DHT22;21665;40.108;18.302;2023-04-03T00:05:03;12.30;99.90
35563;DHT22;21665;40.108;18.302;2023-04-03T00:07:30;12.50;99.90
35563;DHT22;21665;40.108;18.302;2023-04-03T00:10:15;12.50;99.90
35563;DHT22;21665;40.108;18.302;2023-04-03T00:12:45;12.50;99.90
35563;DHT22;21665;40.108;18.302;2023-04-03T00:15:13;12.40;99.90
35563;DHT22;21665;40.108;18.302;2023-04-03T00:17:40;12.50;99.90
35563;DHT22;21665;40.108;18.302;2023-04-03T00:20:11;12.50;99.90
35563;DHT22;21665;40.108;18.302;2023-04-03T00:22:41;12.50;99.90
35563;DHT22;21665;40.108;18.302;2023-04-03T00:25:11;12.60;99.90
35563;DHT22;21665;40.108;18.302;2023-04-03T00:27:39;12.60;99.90
35563;DHT22;21665;40.108;18.302;2023-04-03T00:30:08;12.70;99.90
35563;DHT22;21665;40.108;18.302;2023-04-03T00:32:37;12.70;99.90
35563;DHT22;21665;40.108;18.302;2023-04-03T00:35:15;12.70;99.90
35563;DHT22;21665;40.108;18.302;2023-04-03T00:37:56;12.60;99.90
35563;DHT22;21665;40.108;18.302;2023-04-03T00:40:25;12.60;99.90
35563;DHT22;21665;40.108;18.302;2023-04-03T00:42:57;12.60;99.90
35563;DHT22;21665;40.108;18.302;2023-04-03T00:45:31;12.60;99.90
35563;DHT22;21665;40.108;18.302;2023-04-03T00:48:00;12.60;99.90
35563;DHT22;21665;40.108;18.302;2023-04-03T00:50:39;12.60;99.90
35563;DHT22;21665;40.108;18.302;2023-04-03T00:53:14;12.60;99.90
35563;DHT22;21665;40.108;18.302;2023-04-03T00:55:47;12.60;99.90
35563;DHT22;21665;40.108;18.302;2023-04-03T00:58:19;12.60;99.90
35563;DHT22;21665;40.108;18.302;2023-04-03T01:00:52;12.50;99.90
35563;DHT22;21665;40.108;18.302;2023-04-03T01:03:24;12.50;99.90
35563;DHT22;21665;40.108;18.302;2023-04-03T01:05:57;12.50;99.90
35563;DHT22;21665;40.108;18.302;2023-04-03T01:08:30;12.60;99.90
35563;DHT22;21665;40.108;18.302;2023-04-03T01:11:03;12.60;99.90
35563;DHT22;21665;40.108;18.302;2023-04-03T01:13:33;12.60;99.90
35563;DHT22;21665;40.108;18.302;2023-04-03T01:16:04;12.70;99.90
35563;DHT22;21665;40.108;18.302;2023-04-03T01:18:34;12.70;99.90
35563;DHT22;21665;40.108;18.302;2023-04-03T01:24:01;12.70;99.90
35563;DHT22;21665;40.108;18.302;2023-04-03T01:26:33;12.70;99.90
35563;DHT22;21665;40.108;18.302;2023-04-03T01:29:00;12.80;99.90
35563;DHT22;21665;40.108;18.302;2023-04-03T01:34:06;12.80;99.90
35563;DHT22;21665;40.108;18.302;2023-04-03T01:36:33;12.80;99.90
35563;DHT22;21665;40.108;18.302;2023-04-03T01:39:01;12.80;99.90
35563;DHT22;21665;40.108;18.302;2023-04-03T01:41:29;12.80;99.90
35563;DHT22;21665;40.108;18.302;2023-04-03T01:44:04;12.80;99.90
35563;DHT22;21665;40.108;18.302;2023-04-03T01:46:31;12.90;99.90
35563;DHT22;21665;40.108;18.302;2023-04-03T01:48:58;12.90;99.90
35563;DHT22;21665;40.108;18.302;2023-04-03T01:51:28;12.80;99.90
35563;DHT22;21665;40.108;18.302;2023-04-03T01:53:55;12.80;99.90
35563;DHT22;21665;40.108;18.302;2023-04-03T01:56:22;12.80;99.90
35563;DHT22;21665;40.108;18.302;2023-04-03T01:58:56;12.90;99.90
35563;DHT22;21665;40.108;18.302;2023-04-03T02:01:22;12.80;99.90
35563;DHT22;21665;40.108;18.302;2023-04-03T02:03:49;12.80;99.90
35563;DHT22;21665;40.108;18.302;2023-04-03T02:06:17;12.80;99.90
35563;DHT22;21665;40.108;18.302;2023-04-03T02:08:44;12.80;99.90
35563;DHT22;21665;40.108;18.302;2023-04-03T02:11:11;12.80;99.90
35563;DHT22;21665;40.108;18.302;2023-04-03T02:13:38;12.80;99.90
35563;DHT22;21665;40.108;18.302;2023-04-03T02:16:11;12.80;99.90
35563;DHT22;21665;40.108;18.302;2023-04-03T02:18:38;12.90;99.90
35563;DHT22;21665;40.108;18.302;2023-04-03T02:21:05;13.00;99.90
35563;DHT22;21665;40.108;18.302;2023-04-03T02:23:32;13.00;99.90
35563;DHT22;21665;40.108;18.302;2023-04-03T02:26:08;13.00;99.90
35563;DHT22;21665;40.108;18.302;2023-04-03T02:28:36;13.00;99.90
35563;DHT22;21665;40.108;18.302;2023-04-03T02:31:04;13.00;99.90
35563;DHT22;21665;40.108;18.302;2023-04-03T02:33:31;13.10;99.90
35563;DHT22;21665;40.108;18.302;2023-04-03T02:35:58;13.10;99.90
35563;DHT22;21665;40.108;18.302;2023-04-03T02:38:26;13.10;99.90
35563;DHT22;21665;40.108;18.302;2023-04-03T02:41:07;13.10;99.90
35563;DHT22;21665;40.108;18.302;2023-04-03T02:43:40;13.20;99.90
35563;DHT22;21665;40.108;18.302;2023-04-03T02:46:07;13.20;99.90
35563;DHT22;21665;40.108;18.302;2023-04-03T02:48:34;13.20;99.90
35563;DHT22;21665;40.108;18.302;2023-04-03T02:51:04;13.20;99.90
35563;DHT22;21665;40.108;18.302;2023-04-03T02:53:36;13.10;99.90
35563;DHT22;21665;40.108;18.302;2023-04-03T02:56:09;13.10;99.90
35563;DHT22;21665;40.108;18.302;2023-04-03T02:58:44;13.10;99.90
35563;DHT22;21665;40.108;18.302;2023-04-03T03:01:41;13.20;99.90
35563;DHT22;21665;40.108;18.302;2023-04-03T03:04:20;13.20;99.90
35563;DHT22;21665;40.108;18.302;2023-04-03T03:10:46;13.20;99.90
35563;DHT22;21665;40.108;18.302;2023-04-03T03:13:16;13.20;99.90
35563;DHT22;21665;40.108;18.302;2023-04-03T03:15:46;13.20;99.90
35563;DHT22;21665;40.108;18.302;2023-04-03T03:18:24;13.20;99.90
35563;DHT22;21665;40.108;18.302;2023-04-03T03:20:53;13.20;99.90
35563;DHT22;21665;40.108;18.302;2023-04-03T03:23:22;13.20;99.90
35563;DHT22;21665;40.108;18.302;2023-04-03T03:27:17;13.10;99.90
35563;DHT22;21665;40.108;18.302;2023-04-03T03:46:29;13.10;99.90
35563;DHT22;21665;40.108;18.302;2023-04-03T03:49:04;13.10;99.90
35563;DHT22;21665;40.108;18.302;2023-04-03T03:51:56;13.00;99.90
35563;DHT22;21665;40.108;18.302;2023-04-03T03:54:28;13.00;99.90
35563;DHT22;21665;40.108;18.302;2023-04-03T03:57:12;13.00;99.90
35563;DHT22;21665;40.108;18.302;2023-04-03T04:00:00;12.90;99.90
35563;DHT22;21665;40.108;18.302;2023-04-03T04:02:51;12.90;99.90
35563;DHT22;21665;40.108;18.302;2023-04-03T04:05:39;12.90;99.90
35563;DHT22;21665;40.108;18.302;2023-04-03T04:08:12;12.90;99.90
35563;DHT22;21665;40.108;18.302;2023-04-03T04:10:39;12.90;99.90
35563;DHT22;21665;40.108;18.302;2023-04-03T04:13:07;12.90;99.90
35563;DHT22;21665;40.108;18.302;2023-04-03T04:15:34;12.80;99.90
35563;DHT22;21665;40.108;18.302;2023-04-03T04:18:04;12.80;99.90
35563;DHT22;21665;40.108;18.302;2023-04-03T04:20:34;12.80;99.90
35563;DHT22;21665;40.108;18.302;2023-04-03T04:23:02;12.80;99.90
35563;DHT22;21665;40.108;18.302;2023-04-03T04:25:36;12.80;99.90
35563;DHT22;21665;40.108;18.302;2023-04-03T04:28:15;12.70;99.90
35563;DHT22;21665;40.108;18.302;2023-04-03T04:30:43;12.70;99.90
35563;DHT22;21665;40.108;18.302;2023-04-03T04:33:10;12.60;99.90
35563;DHT22;21665;40.108;18.302;2023-04-03T04:35:39;12.60;99.90
35563;DHT22;21665;40.108;18.302;2023-04-03T04:38:05;12.60;99.90
35563;DHT22;21665;40.108;18.302;2023-04-03T04:40:32;12.60;99.90
35563;DHT22;21665;40.108;18.302;2023-04-03T04:42:59;12.50;99.90
35563;DHT22;21665;40.108;18.302;2023-04-03T04:45:26;12.50;99.90
35563;DHT22;21665;40.108;18.302;2023-04-03T04:47:55;12.50;99.90
35563;DHT22;21665;40.108;18.302;2023-04-03T04:50:24;12.50;99.90
35563;DHT22;21665;40.108;18.302;2023-04-03T04:52:51;12.50;99.90
35563;DHT22;21665;40.108;18.302;2023-04-03T04:55:18;12.50;99.90
35563;DHT22;21665;40.108;18.302;2023-04-03T04:57:47;12.50;99.90
35563;DHT22;21665;40.108;18.302;2023-04-03T05:00:15;12.50;99.90
35563;DHT22;21665;40.108;18.302;2023-04-03T05:02:54;12.50;99.90
35563;DHT22;21665;40.108;18.302;2023-04-03T05:05:35;12.40;99.90
35563;DHT22;21665;40.108;18.302;2023-04-03T05:08:02;12.40;99.90
35563;DHT22;21665;40.108;18.302;2023-04-03T05:10:29;12.40;99.90
35563;DHT22;21665;40.108;18.302;2023-04-03T05:12:58;12.40;99.90
35563;DHT22;21665;40.108;18.302;2023-04-03T05:15:25;12.50;99.90
35563;DHT22;21665;40.108;18.302;2023-04-03T05:17:51;12.50;99.90
35563;DHT22;21665;40.108;18.302;2023-04-03T05:20:21;12.50;99.90
35563;DHT22;21665;40.108;18.302;2023-04-03T05:22:48;12.40;99.90
35563;DHT22;21665;40.108;18.302;2023-04-03T05:25:16;12.50;99.90
35563;DHT22;21665;40.108;18.302;2023-04-03T05:27:44;12.50;99.90
35563;DHT22;21665;40.108;18.302;2023-04-03T05:30:10;12.40;99.90
35563;DHT22;21665;40.108;18.302;2023-04-03T05:32:40;12.50;99.90
35563;DHT22;21665;40.108;18.302;2023-04-03T05:35:19;12.50;99.90
35563;DHT22;21665;40.108;18.302;2023-04-03T05:37:48;12.50;99.90
35563;DHT22;21665;40.108;18.302;2023-04-03T05:40:17;12.50;99.90
35563;DHT22;21665;40.108;18.302;2023-04-03T05:42:46;12.50;99.90
35563;DHT22;21665;40.108;18.302;2023-04-03T05:45:18;12.50;99.90
35563;DHT22;21665;40.108;18.302;2023-04-03T05:47:46;12.60;99.90
35563;DHT22;21665;40.108;18.302;2023-04-03T05:50:43;12.60;99.90
35563;DHT22;21665;40.108;18.302;2023-04-03T05:53:28;12.60;99.90
35563;DHT22;21665;40.108;18.302;2023-04-03T05:56:01;12.50;99.90
35563;DHT22;21665;40.108;18.302;2023-04-03T05:58:31;12.50;99.90
35563;DHT22;21665;40.108;18.302;2023-04-03T06:00:58;12.60;99.90
35563;DHT22;21665;40.108;18.302;2023-04-03T06:03:25;12.60;99.90
35563;DHT22;21665;40.108;18.302;2023-04-03T06:05:52;12.60;99.90
35563;DHT22;21665;40.108;18.302;2023-04-03T06:08:18;12.70;99.90
35563;DHT22;21665;40.108;18.302;2023-04-03T06:10:45;12.70;99.90
35563;DHT22;21665;40.108;18.302;2023-04-03T06:13:12;12.60;99.90
35563;DHT22;21665;40.108;18.302;2023-04-03T06:21:32;12.70;99.90
35563;DHT22;21665;40.108;18.302;2023-04-03T06:23:59;12.70;99.90
35563;DHT22;21665;40.108;18.302;2023-04-03T06:26:26;12.80;99.90
35563;DHT22;21665;40.108;18.302;2023-04-03T06:28:53;12.70;99.90
35563;DHT22;21665;40.108;18.302;2023-04-03T06:31:19;12.80;99.90
35563;DHT22;21665;40.108;18.302;2023-04-03T06:33:54;12.70;99.90
35563;DHT22;21665;40.108;18.302;2023-04-03T06:37:00;12.80;99.90
35563;DHT22;21665;40.108;18.302;2023-04-03T06:39:30;12.70;99.90
35563;DHT22;21665;40.108;18.302;2023-04-03T06:41:59;12.70;99.90
35563;DHT22;21665;40.108;18.302;2023-04-03T06:44:34;12.60;99.90
35563;DHT22;21665;40.108;18.302;2023-04-03T06:47:04;12.60;99.90
35563;DHT22;21665;40.108;18.302;2023-04-03T08:08:37;12.20;99.90
35563;DHT22;21665;40.108;18.302;2023-04-03T08:11:03;12.00;99.90
35563;DHT22;21665;40.108;18.302;2023-04-03T08:13:33;12.00;99.90
35563;DHT22;21665;40.108;18.302;2023-04-03T08:16:10;12.00;99.90
35563;DHT22;21665;40.108;18.302;2023-04-03T08:18:37;12.00;99.90
35563;DHT22;21665;40.108;18.302;2023-04-03T08:21:06;12.00;99.90
35563;DHT22;21665;40.108;18.302;2023-04-03T08:23:33;12.00;99.90
35563;DHT22;21665;40.108;18.302;2023-04-03T08:26:04;12.00;99.90
35563;DHT22;21665;40.108;18.302;2023-04-03T08:28:31;12.00;99.90
35563;DHT22;21665;40.108;18.302;2023-04-03T08:31:03;12.10;99.90
35563;DHT22;21665;40.108;18.302;2023-04-03T08:33:30;12.10;99.90
35563;DHT22;21665;40.108;18.302;2023-04-03T08:35:56;12.10;99.90
35563;DHT22;21665;40.108;18.302;2023-04-03T08:38:23;12.20;99.90
35563;DHT22;21665;40.108;18.302;2023-04-03T08:50:19;12.30;99.90
35563;DHT22;21665;40.108;18.302;2023-04-03T08:52:52;12.30;99.90
35563;DHT22;21665;40.108;18.302;2023-04-03T08:55:22;12.30;99.90
35563;DHT22;21665;40.108;18.302;2023-04-03T08:57:57;12.40;99.90
35563;DHT22;21665;40.108;18.302;2023-04-03T09:00:26;12.30;99.90
35563;DHT22;21665;40.108;18.302;2023-04-03T09:02:56;12.30;99.90
35563;DHT22;21665;40.108;18.302;2023-04-03T09:08:15;12.30;99.90
35563;DHT22;21665;40.108;18.302;2023-04-03T09:14:38;12.20;99.90
35563;DHT22;21665;40.108;18.302;2023-04-03T09:22:44;12.50;99.90
35563;DHT22;21665;40.108;18.302;2023-04-03T09:25:32;12.50;99.90
35563;DHT22;21665;40.108;18.302;2023-04-03T09:28:00;12.40;99.90
35563;DHT22;21665;40.108;18.302;2023-04-03T09:30:33;12.40;99.90
35563;DHT22;21665;40.108;18.302;2023-04-03T09:33:01;12.40;99.90
35563;DHT22;21665;40.108;18.302;2023-04-03T09:35:31;12.30;99.90
35563;DHT22;21665;40.108;18.302;2023-04-03T09:38:01;12.30;99.90
35563;DHT22;21665;40.108;18.302;2023-04-03T09:40:35;12.30;99.90
35563;DHT22;21665;40.108;18.302;2023-04-03T09:43:29;12.40;99.90
35563;DHT22;21665;40.108;18.302;2023-04-03T09:46:18;12.50;99.90
35563;DHT22;21665;40.108;18.302;2023-04-03T09:49:00;12.50;99.90
35563;DHT22;21665;40.108;18.302;2023-04-03T09:51:30;12.50;99.90
35563;DHT22;21665;40.108;18.302;2023-04-03T09:53:57;12.50;99.90
35563;DHT22;21665;40.108;18.302;2023-04-03T09:56:27;12.40;99.90
35563;DHT22;21665;40.108;18.302;2023-04-03T10:01:35;12.50;99.90
35563;DHT22;21665;40.108;18.302;2023-04-03T10:06:36;12.50;99.90
35563;DHT22;21665;40.108;18.302;2023-04-03T10:09:10;12.60;99.90
35563;DHT22;21665;40.108;18.302;2023-04-03T10:11:58;12.70;99.90
35563;DHT22;21665;40.108;18.302;2023-04-03T10:14:38;12.80;99.90
35563;DHT22;21665;40.108;18.302;2023-04-03T10:19:48;13.30;99.90
35563;DHT22;21665;40.108;18.302;2023-04-03T10:23:14;13.60;99.90
35563;DHT22;21665;40.108;18.302;2023-04-03T10:35:44;14.10;99.90
35563;DHT22;21665;40.108;18.302;2023-04-03T10:41:07;14.30;99.90
35563;DHT22;21665;40.108;18.302;2023-04-03T10:43:43;14.30;99.90
35563;DHT22;21665;40.108;18.302;2023-04-03T10:46:33;14.20;99.90
35563;DHT22;21665;40.108;18.302;2023-04-03T10:52:06;14.00;99.90
35563;DHT22;21665;40.108;18.302;2023-04-03T10:54:41;14.10;99.90
35563;DHT22;21665;40.108;18.302;2023-04-03T10:57:11;14.00;99.90
35563;DHT22;21665;40.108;18.302;2023-04-03T11:02:16;14.00;99.90
35563;DHT22;21665;40.108;18.302;2023-04-03T11:04:48;14.10;99.90
35563;DHT22;21665;40.108;18.302;2023-04-03T11:07:26;14.30;99.90
35563;DHT22;21665;40.108;18.302;2023-04-03T11:10:09;14.30;99.90
35563;DHT22;21665;40.108;18.302;2023-04-03T11:12:43;14.10;99.90
35563;DHT22;21665;40.108;18.302;2023-04-03T11:15:17;14.10;99.90
35563;DHT22;21665;40.108;18.302;2023-04-03T11:17:54;14.20;99.90
35563;DHT22;21665;40.108;18.302;2023-04-03T11:20:32;14.40;99.90
35563;DHT22;21665;40.108;18.302;2023-04-03T11:23:14;14.40;99.90
35563;DHT22;21665;40.108;18.302;2023-04-03T11:25:43;14.20;99.90
35563;DHT22;21665;40.108;18.302;2023-04-03T11:28:14;14.00;99.90
35563;DHT22;21665;40.108;18.302;2023-04-03T11:36:22;13.60;99.90
35563;DHT22;21665;40.108;18.302;2023-04-03T11:38:53;13.50;99.90
35563;DHT22;21665;40.108;18.302;2023-04-03T11:41:28;13.50;99.90
35563;DHT22;21665;40.108;18.302;2023-04-03T11:44:05;13.50;99.90
35563;DHT22;21665;40.108;18.302;2023-04-03T11:46:54;13.50;99.90
35563;DHT22;21665;40.108;18.302;2023-04-03T12:16:27;13.20;99.90
35563;DHT22;21665;40.108;18.302;2023-04-03T12:18:59;13.30;99.90
35563;DHT22;21665;40.108;18.302;2023-04-03T12:29:25;13.50;99.90
35563;DHT22;21665;40.108;18.302;2023-04-03T12:34:43;12.80;99.90
35563;DHT22;21665;40.108;18.302;2023-04-03T12:37:32;12.70;99.90
35563;DHT22;21665;40.108;18.302;2023-04-03T12:40:08;12.30;99.90
35563;DHT22;21665;40.108;18.302;2023-04-03T12:42:46;12.30;99.90
35563;DHT22;21665;40.108;18.302;2023-04-03T12:45:25;12.20;99.90
35563;DHT22;21665;40.108;18.302;2023-04-03T12:47:54;12.30;99.90
35563;DHT22;21665;40.108;18.302;2023-04-03T12:50:31;12.30;99.90
35563;DHT22;21665;40.108;18.302;2023-04-03T12:56:26;12.40;99.90
35563;DHT22;21665;40.108;18.302;2023-04-03T12:58:55;12.40;99.90
35563;DHT22;21665;40.108;18.302;2023-04-03T13:01:25;12.50;99.90
35563;DHT22;21665;40.108;18.302;2023-04-03T13:03:56;12.60;99.90
35563;DHT22;21665;40.108;18.302;2023-04-03T13:06:30;12.40;99.90
35563;DHT22;21665;40.108;18.302;2023-04-03T13:09:00;12.30;99.90
35563;DHT22;21665;40.108;18.302;2023-04-03T13:11:32;12.30;99.90
35563;DHT22;21665;40.108;18.302;2023-04-03T13:14:12;12.30;99.90
35563;DHT22;21665;40.108;18.302;2023-04-03T13:16:40;12.30;99.90
35563;DHT22;21665;40.108;18.302;2023-04-03T13:19:17;12.40;99.90
35563;DHT22;21665;40.108;18.302;2023-04-03T13:21:44;12.50;99.90
35563;DHT22;21665;40.108;18.302;2023-04-03T13:24:12;12.40;99.90
35563;DHT22;21665;40.108;18.302;2023-04-03T13:26:39;12.40;99.90
35563;DHT22;21665;40.108;18.302;2023-04-03T13:29:17;12.50;99.90
35563;DHT22;21665;40.108;18.302;2023-04-03T13:31:51;12.50;99.90
35563;DHT22;21665;40.108;18.302;2023-04-03T13:34:20;12.50;99.90
35563;DHT22;21665;40.108;18.302;2023-04-03T13:42:16;12.60;99.90
35563;DHT22;21665;40.108;18.302;2023-04-03T13:44:43;12.60;99.90
35563;DHT22;21665;40.108;18.302;2023-04-03T13:47:23;12.70;99.90
35563;DHT22;21665;40.108;18.302;2023-04-03T13:50:11;12.60;99.90
35563;DHT22;21665;40.108;18.302;2023-04-03T13:53:54;12.60;99.90
35563;DHT22;21665;40.108;18.302;2023-04-03T13:56:36;12.50;99.90
35563;DHT22;21665;40.108;18.302;2023-04-03T14:04:19;12.40;99.90
35563;DHT22;21665;40.108;18.302;2023-04-03T14:06:49;12.30;99.90
35563;DHT22;21665;40.108;18.302;2023-04-03T14:09:17;12.20;99.90
35563;DHT22;21665;40.108;18.302;2023-04-03T14:11:44;12.20;99.90
35563;DHT22;21665;40.108;18.302;2023-04-03T14:14:24;12.20;99.90
35563;DHT22;21665;40.108;18.302;2023-04-03T14:16:56;12.20;99.90
35563;DHT22;21665;40.108;18.302;2023-04-03T14:19:33;12.20;99.90
35563;DHT22;21665;40.108;18.302;2023-04-03T14:22:10;12.30;99.90
35563;DHT22;21665;40.108;18.302;2023-04-03T14:24:37;12.40;99.90
35563;DHT22;21665;40.108;18.302;2023-04-03T14:27:16;12.30;99.90
35563;DHT22;21665;40.108;18.302;2023-04-03T14:29:44;12.10;99.90
35563;DHT22;21665;40.108;18.302;2023-04-03T14:32:15;12.00;99.90
35563;DHT22;21665;40.108;18.302;2023-04-03T14:34:50;12.00;99.90
35563;DHT22;21665;40.108;18.302;2023-04-03T14:37:23;11.90;99.90
35563;DHT22;21665;40.108;18.302;2023-04-03T14:39:52;11.80;99.90
35563;DHT22;21665;40.108;18.302;2023-04-03T14:42:26;11.90;99.90
35563;DHT22;21665;40.108;18.302;2023-04-03T14:44:54;11.90;99.90
35563;DHT22;21665;40.108;18.302;2023-04-03T14:47:23;12.00;99.90
35563;DHT22;21665;40.108;18.302;2023-04-03T14:49:50;12.00;99.90
35563;DHT22;21665;40.108;18.302;2023-04-03T14:52:35;12.00;99.90
35563;DHT22;21665;40.108;18.302;2023-04-03T14:55:04;12.00;99.90
35563;DHT22;21665;40.108;18.302;2023-04-03T14:57:32;12.00;99.90
35563;DHT22;21665;40.108;18.302;2023-04-03T15:00:00;12.00;99.90
35563;DHT22;21665;40.108;18.302;2023-04-03T15:02:36;12.00;99.90
35563;DHT22;21665;40.108;18.302;2023-04-03T15:05:07;11.90;99.90
35563;DHT22;21665;40.108;18.302;2023-04-03T15:07:40;12.00;99.90
35563;DHT22;21665;40.108;18.302;2023-04-03T15:10:29;11.90;99.90
35563;DHT22;21665;40.108;18.302;2023-04-03T15:12:56;11.90;99.90
35563;DHT22;21665;40.108;18.302;2023-04-03T15:15:24;12.00;99.90
35563;DHT22;21665;40.108;18.302;2023-04-03T15:17:55;12.00;99.90
35563;DHT22;21665;40.108;18.302;2023-04-03T15:20:26;12.10;99.90
35563;DHT22;21665;40.108;18.302;2023-04-03T15:22:54;12.10;99.90
35563;DHT22;21665;40.108;18.302;2023-04-03T15:25:22;12.10;99.90
35563;DHT22;21665;40.108;18.302;2023-04-03T15:27:49;12.20;99.90
35563;DHT22;21665;40.108;18.302;2023-04-03T15:30:18;12.30;99.90
35563;DHT22;21665;40.108;18.302;2023-04-03T15:32:46;12.40;99.90
35563;DHT22;21665;40.108;18.302;2023-04-03T15:35:13;12.30;99.90
35563;DHT22;21665;40.108;18.302;2023-04-03T15:37:39;12.30;99.90
35563;DHT22;21665;40.108;18.302;2023-04-03T15:40:06;12.30;99.90
35563;DHT22;21665;40.108;18.302;2023-04-03T15:42:33;12.40;99.90
35563;DHT22;21665;40.108;18.302;2023-04-03T15:44:59;12.30;99.90
35563;DHT22;21665;40.108;18.302;2023-04-03T15:47:26;12.30;99.90
35563;DHT22;21665;40.108;18.302;2023-04-03T15:49:54;12.20;99.90
35563;DHT22;21665;40.108;18.302;2023-04-03T15:52:21;12.20;99.90
35563;DHT22;21665;40.108;18.302;2023-04-03T15:54:48;12.20;99.90
35563;DHT22;21665;40.108;18.302;2023-04-03T15:57:14;12.10;99.90
35563;DHT22;21665;40.108;18.302;2023-04-03T15:59:41;12.10;99.90
35563;DHT22;21665;40.108;18.302;2023-04-03T16:02:08;12.10;99.90
35563;DHT22;21665;40.108;18.302;2023-04-03T16:04:39;12.00;99.90
35563;DHT22;21665;40.108;18.302;2023-04-03T16:07:05;12.00;99.90
35563;DHT22;21665;40.108;18.302;2023-04-03T16:09:33;12.00;99.90
35563;DHT22;21665;40.108;18.302;2023-04-03T16:12:00;11.90;99.90
35563;DHT22;21665;40.108;18.302;2023-04-03T16:14:28;11.90;99.90
35563;DHT22;21665;40.108;18.302;2023-04-03T16:17:03;11.90;99.90
35563;DHT22;21665;40.108;18.302;2023-04-03T16:19:32;11.90;99.90
35563;DHT22;21665;40.108;18.302;2023-04-03T16:21:59;11.90;99.90
35563;DHT22;21665;40.108;18.302;2023-04-03T16:24:25;11.90;99.90
35563;DHT22;21665;40.108;18.302;2023-04-03T16:26:55;11.90;99.90
35563;DHT22;21665;40.108;18.302;2023-04-03T16:29:21;11.90;99.90
35563;DHT22;21665;40.108;18.302;2023-04-03T16:31:48;11.90;99.90
35563;DHT22;21665;40.108;18.302;2023-04-03T16:34:14;11.90;99.90
35563;DHT22;21665;40.108;18.302;2023-04-03T16:36:42;11.90;99.90
35563;DHT22;21665;40.108;18.302;2023-04-03T16:39:08;11.90;99.90
35563;DHT22;21665;40.108;18.302;2023-04-03T16:41:36;12.00;99.90
35563;DHT22;21665;40.108;18.302;2023-04-03T16:44:02;11.90;99.90
35563;DHT22;21665;40.108;18.302;2023-04-03T16:46:29;11.90;99.90
35563;DHT22;21665;40.108;18.302;2023-04-03T16:48:55;12.00;99.90
35563;DHT22;21665;40.108;18.302;2023-04-03T16:51:22;12.00;99.90
35563;DHT22;21665;40.108;18.302;2023-04-03T16:53:49;12.10;99.90
35563;DHT22;21665;40.108;18.302;2023-04-03T16:56:15;12.00;99.90
35563;DHT22;21665;40.108;18.302;2023-04-03T16:58:42;12.00;99.90
35563;DHT22;21665;40.108;18.302;2023-04-03T17:01:16;12.00;99.90
35563;DHT22;21665;40.108;18.302;2023-04-03T17:03:44;12.00;99.90
35563;DHT22;21665;40.108;18.302;2023-04-03T17:06:13;12.00;99.90
35563;DHT22;21665;40.108;18.302;2023-04-03T17:08:46;12.00;99.90
35563;DHT22;21665;40.108;18.302;2023-04-03T17:11:26;11.90;99.90
35563;DHT22;21665;40.108;18.302;2023-04-03T17:13:53;11.90;99.90
35563;DHT22;21665;40.108;18.302;2023-04-03T17:16:20;11.90;99.90
35563;DHT22;21665;40.108;18.302;2023-04-03T17:18:47;11.90;99.90
35563;DHT22;21665;40.108;18.302;2023-04-03T17:21:14;11.90;99.90
35563;DHT22;21665;40.108;18.302;2023-04-03T17:23:46;11.80;99.90
35563;DHT22;21665;40.108;18.302;2023-04-03T17:26:13;11.80;99.90
35563;DHT22;21665;40.108;18.302;2023-04-03T17:28:39;11.70;99.90
35563;DHT22;21665;40.108;18.302;2023-04-03T17:31:07;11.80;99.90
35563;DHT22;21665;40.108;18.302;2023-04-03T17:33:34;11.80;99.90
35563;DHT22;21665;40.108;18.302;2023-04-03T17:36:02;11.80;99.90
35563;DHT22;21665;40.108;18.302;2023-04-03T17:38:31;11.80;99.90
35563;DHT22;21665;40.108;18.302;2023-04-03T17:41:02;11.80;99.90
35563;DHT22;21665;40.108;18.302;2023-04-03T17:43:38;11.80;99.90
35563;DHT22;21665;40.108;18.302;2023-04-03T17:46:08;11.80;99.90
35563;DHT22;21665;40.108;18.302;2023-04-03T17:48:36;11.80;99.90
35563;DHT22;21665;40.108;18.302;2023-04-03T17:51:13;11.80;99.90
35563;DHT22;21665;40.108;18.302;2023-04-03T17:53:41;11.80;99.90
35563;DHT22;21665;40.108;18.302;2023-04-03T17:56:19;11.80;99.90
35563;DHT22;21665;40.108;18.302;2023-04-03T17:58:49;11.80;99.90
35563;DHT22;21665;40.108;18.302;2023-04-03T18:01:20;11.80;99.90
35563;DHT22;21665;40.108;18.302;2023-04-03T18:03:49;11.80;99.90
35563;DHT22;21665;40.108;18.302;2023-04-03T18:06:19;11.80;99.90
35563;DHT22;21665;40.108;18.302;2023-04-03T18:08:53;11.80;99.90
35563;DHT22;21665;40.108;18.302;2023-04-03T18:11:24;11.80;99.90
35563;DHT22;21665;40.108;18.302;2023-04-03T18:13:58;11.80;99.90
35563;DHT22;21665;40.108;18.302;2023-04-03T18:16:26;11.80;99.90
35563;DHT22;21665;40.108;18.302;2023-04-03T18:18:53;11.70;99.90
35563;DHT22;21665;40.108;18.302;2023-04-03T18:21:20;11.80;99.90
35563;DHT22;21665;40.108;18.302;2023-04-03T18:23:51;11.70;99.90
35563;DHT22;21665;40.108;18.302;2023-04-03T18:26:25;11.70;99.90
35563;DHT22;21665;40.108;18.302;2023-04-03T18:29:00;11.70;99.90
35563;DHT22;21665;40.108;18.302;2023-04-03T18:31:30;11.60;99.90
35563;DHT22;21665;40.108;18.302;2023-04-03T18:33:59;11.70;99.90
35563;DHT22;21665;40.108;18.302;2023-04-03T18:36:30;11.60;99.90
35563;DHT22;21665;40.108;18.302;2023-04-03T18:38:59;11.60;99.90
35563;DHT22;21665;40.108;18.302;2023-04-03T18:41:29;11.50;99.90
35563;DHT22;21665;40.108;18.302;2023-04-03T18:43:58;11.50;99.90
35563;DHT22;21665;40.108;18.302;2023-04-03T18:46:27;11.60;99.90
35563;DHT22;21665;40.108;18.302;2023-04-03T18:48:53;11.50;99.90
35563;DHT22;21665;40.108;18.302;2023-04-03T18:51:21;11.40;99.90
35563;DHT22;21665;40.108;18.302;2023-04-03T18:53:47;11.40;99.90
35563;DHT22;21665;40.108;18.302;2023-04-03T18:56:15;11.30;99.90
35563;DHT22;21665;40.108;18.302;2023-04-03T18:58:41;11.30;99.90
35563;DHT22;21665;40.108;18.302;2023-04-03T19:01:08;11.30;99.90
35563;DHT22;21665;40.108;18.302;2023-04-03T19:03:36;11.20;99.90
35563;DHT22;21665;40.108;18.302;2023-04-03T19:06:04;11.30;99.90
35563;DHT22;21665;40.108;18.302;2023-04-03T19:08:31;11.20;99.90
35563;DHT22;21665;40.108;18.302;2023-04-03T19:11:01;11.20;99.90
35563;DHT22;21665;40.108;18.302;2023-04-03T19:13:27;11.20;99.90
35563;DHT22;21665;40.108;18.302;2023-04-03T19:15:54;11.20;99.90
35563;DHT22;21665;40.108;18.302;2023-04-03T19:18:25;11.20;99.90